رشيد, مصر

09:31 PM EET on وèلهبر 23, 2014 (GMT +0200)
Alexandria International | Change Station
CLOSE
Current Station
Airport
Location: Alexandria,
Elevation: 23 ft
Nearby Weather Stations

Elev 23 ft 31.18 °N, 29.95 °E | Updated 31 minutes ago

Partly Cloudy
غائم جزئياً
66 °F
Feels Like 66 °F
N
14
ريح متغير ريح from NW

هذا اليوم
High -- | Low -- °F
--% Chance of Precip.
Yesterday
High -- | Low -- °F
Precip. -- في
6:32 AM 4:56 PM
قمر جدید, 2% visible
الضغط 30.01 في
وضوح الرؤية 6.2 أميال
سحابات Few 2000 ft
نقطة الندى 46 °F
الرطوبة 49%
Rainfall 0.00 في
عمق الثلج Not available.
الأشعة فوق البنفسجية 0 out of 12
Pollen Not available.
جودة الهواء Not available.
Flu Activity Not available.
METAR HEAX 231900Z 31012KT 9999 FEW020 19/08 Q1016 NOSIG

More Conditions Fewer Conditions

الضغط 30.01 في
وضوح الرؤية 6.2 أميال
سحابات Few 2000 ft
نقطة الندى 46 °F
الرطوبة 49%
Rainfall 0.00 في
عمق الثلج Not available.
الأشعة فوق البنفسجية 0 out of 12
Pollen Not available.
جودة الهواء Not available.
Flu Activity Not available.
METAR HEAX 231900Z 31012KT 9999 FEW020 19/08 Q1016 NOSIG

More Conditions Fewer Conditions

10-Day Weather Forecast

Almanac

علم الفلك

Nov. 23, 2014 Rise Set
Actual Time
Civil Twilight
Nautical Twilight
Astronomical Twilight
قمر
Length Of Visible Light
طول الیوم
Tomorrow will be .
, % of the Moon is Illuminated

Today's Extremes

Country Highs Country Lows

Community

WunderPhotos

Upload Photos

1,773,154 photos uploaded!

WunderBlogs® & News

Nearby

جودة الهواء

  جودة الهواء AQ Index Pollutant
Not available.

عمق الثلج

Station Depth Elevation

Earthquake Activity

City Distance Mag. Time & Date
Minimum magnitude displayed is 2.5.

Coastal Water Temperatures

مكان درجات الحرارة

Nearby Weather Stations